createdAt,value
2022-11-19T00:02:21.821Z,6.55
2022-11-19T00:05:23.386Z,7.32
2022-11-19T00:08:24.964Z,4.53
2022-11-19T00:11:46.623Z,5.60
2022-11-19T00:14:48.240Z,8.00
2022-11-19T00:17:49.750Z,6.47
2022-11-19T00:20:51.567Z,5.15
2022-11-19T00:23:54.594Z,3.92
2022-11-19T00:26:56.477Z,5.28
2022-11-19T00:29:58.046Z,6.28
2022-11-19T00:32:59.576Z,4.80
2022-11-19T00:36:02.316Z,4.72
2022-11-19T00:39:03.958Z,4.45
2022-11-19T00:42:05.550Z,4.40
2022-11-19T00:45:07.480Z,5.18
2022-11-19T00:48:08.987Z,5.68
2022-11-19T00:51:11.309Z,5.32
2022-11-19T00:54:12.915Z,7.10
2022-11-19T00:57:14.411Z,5.55
2022-11-19T01:00:16.616Z,6.50
2022-11-19T01:03:18.262Z,6.35
2022-11-19T01:06:22.342Z,4.38
2022-11-19T01:12:26.272Z,5.97
2022-11-19T01:15:27.787Z,6.38
2022-11-19T01:18:29.491Z,5.28
2022-11-19T01:21:32.844Z,4.07
2022-11-19T01:24:34.390Z,3.13
2022-11-19T01:27:35.986Z,3.10
2022-11-19T01:30:41.194Z,3.58
2022-11-19T01:33:43.490Z,3.08
2022-11-19T01:36:45.159Z,5.50
2022-11-19T01:39:46.779Z,6.05
2022-11-19T01:42:51.004Z,5.13
2022-11-19T01:45:54.425Z,6.68
2022-11-19T01:49:02.689Z,5.97
2022-11-19T01:52:04.561Z,3.05
2022-11-19T01:55:08.599Z,5.63
2022-11-19T01:58:11.803Z,6.13
2022-11-19T02:01:14.507Z,2.95
2022-11-19T02:04:17.990Z,4.32
2022-11-19T02:07:24.644Z,3.10
2022-11-19T02:10:53.611Z,3.50
2022-11-19T02:14:26.015Z,4.05
2022-11-19T02:18:04.671Z,4.78
2022-11-19T02:21:12.307Z,4.07
2022-11-19T02:24:38.068Z,4.70
2022-11-19T02:27:54.887Z,3.10
2022-11-19T02:31:06.598Z,3.85
2022-11-19T02:34:14.243Z,4.43
2022-11-19T02:37:28.221Z,7.68
2022-11-19T02:40:35.061Z,5.72
2022-11-19T02:43:41.746Z,4.82
2022-11-19T02:46:46.558Z,4.32
2022-11-19T02:49:53.412Z,5.40
2022-11-19T02:52:55.294Z,4.15
2022-11-19T02:56:11.663Z,4.15
2022-11-19T02:59:33.212Z,3.50
2022-11-19T03:03:01.463Z,5.22
2022-11-19T03:06:07.258Z,5.00
2022-11-19T03:09:08.965Z,4.47
2022-11-19T03:12:24.698Z,4.25
2022-11-19T03:15:58.882Z,6.57
2022-11-19T03:19:10.302Z,3.28
2022-11-19T03:22:28.571Z,4.40
2022-11-19T03:25:47.118Z,5.60
2022-11-19T03:28:50.943Z,3.75
2022-11-19T03:31:58.655Z,3.92
2022-11-19T03:35:04.499Z,4.55
2022-11-19T03:38:11.877Z,4.28
2022-11-19T03:41:16.719Z,2.78
2022-11-19T03:44:32.641Z,5.80
2022-11-19T03:47:38.510Z,5.13
2022-11-19T03:50:54.524Z,3.50
2022-11-19T03:53:56.166Z,3.78
2022-11-19T03:56:58.887Z,3.13
2022-11-19T04:00:00.456Z,5.78
2022-11-19T04:03:02.183Z,5.97
2022-11-19T04:06:04.643Z,6.45
2022-11-19T04:09:06.198Z,4.32
2022-11-19T04:12:13.142Z,4.45
2022-11-19T04:15:15.729Z,3.22
2022-11-19T04:18:17.416Z,4.53
2022-11-19T04:21:18.916Z,4.70
2022-11-19T04:24:20.697Z,4.90
2022-11-19T04:27:22.262Z,4.30
2022-11-19T04:30:23.837Z,4.07
2022-11-19T04:33:25.418Z,3.63
2022-11-19T04:36:27.019Z,4.45
2022-11-19T04:39:28.562Z,5.85
2022-11-19T04:42:30.097Z,3.75
2022-11-19T04:45:31.753Z,4.30
2022-11-19T04:48:33.274Z,4.07
2022-11-19T04:51:34.799Z,4.95
2022-11-19T04:54:36.312Z,2.50
2022-11-19T04:57:37.916Z,4.88
2022-11-19T05:00:39.426Z,5.72
2022-11-19T05:03:40.943Z,4.95
2022-11-19T05:06:42.541Z,4.40
2022-11-19T05:09:44.090Z,4.47
2022-11-19T05:12:45.724Z,3.60
2022-11-19T05:15:47.435Z,2.90
2022-11-19T05:18:49.092Z,3.53
2022-11-19T05:21:50.614Z,3.03
2022-11-19T05:24:52.194Z,5.28
2022-11-19T05:27:53.730Z,4.53
2022-11-19T05:30:55.475Z,4.57
2022-11-19T05:33:57.014Z,3.58
2022-11-19T05:36:58.586Z,3.88
2022-11-19T05:40:00.079Z,3.92
2022-11-19T05:43:07.693Z,3.53
2022-11-19T05:46:09.309Z,3.03
2022-11-19T05:49:11.654Z,3.00
2022-11-19T05:52:13.231Z,4.30
2022-11-19T05:55:15.012Z,4.55
2022-11-19T05:58:16.575Z,4.45
2022-11-19T06:01:25.530Z,4.43
2022-11-19T06:04:27.581Z,3.75
2022-11-19T06:07:29.258Z,4.90
2022-11-19T06:10:30.906Z,4.40
2022-11-19T06:13:32.464Z,5.30
2022-11-19T06:16:33.975Z,5.93
2022-11-19T06:19:35.644Z,4.05
2022-11-19T06:22:38.094Z,3.97
2022-11-19T06:25:39.875Z,6.53
2022-11-19T06:28:41.356Z,4.57
2022-11-19T06:31:43.297Z,4.95
2022-11-19T06:34:44.828Z,6.47
2022-11-19T06:37:46.382Z,5.88
2022-11-19T06:40:48.261Z,5.88
2022-11-19T06:43:49.896Z,5.68
2022-11-19T06:46:51.558Z,8.85
2022-11-19T06:49:53.254Z,5.03
2022-11-19T06:52:54.819Z,8.38
2022-11-19T06:55:57.804Z,7.72
2022-11-19T06:58:59.639Z,6.55
2022-11-19T07:02:01.228Z,7.03
2022-11-19T07:05:02.938Z,6.47
2022-11-19T07:08:04.678Z,9.35
2022-11-19T07:11:25.713Z,10.55
2022-11-19T07:14:27.946Z,8.90
2022-11-19T07:17:29.482Z,9.40
2022-11-19T07:20:31.304Z,13.65
2022-11-19T07:23:32.862Z,10.48
2022-11-19T07:26:36.105Z,8.73
2022-11-19T07:29:38.729Z,7.00
2022-11-19T07:32:41.038Z,8.63
2022-11-19T07:35:42.503Z,6.05
2022-11-19T07:38:43.958Z,8.82
2022-11-19T07:42:03.760Z,8.20
2022-11-19T07:45:08.380Z,7.40
2022-11-19T07:48:09.998Z,4.85
2022-11-19T07:51:11.555Z,5.85
2022-11-19T07:54:14.284Z,5.90
2022-11-19T07:57:15.875Z,3.95
2022-11-19T08:00:17.828Z,4.85
2022-11-19T08:03:19.643Z,4.63
2022-11-19T08:06:22.085Z,5.20
2022-11-19T08:09:23.708Z,5.57
2022-11-19T08:12:25.247Z,8.88
2022-11-19T08:15:26.805Z,5.22
2022-11-19T08:18:31.400Z,5.57
2022-11-19T08:21:43.255Z,6.88
2022-11-19T08:24:45.076Z,6.78
2022-11-19T08:27:46.565Z,8.40
2022-11-19T08:30:48.271Z,6.57
2022-11-19T08:33:49.860Z,5.85
2022-11-19T08:36:51.490Z,4.88
2022-11-19T08:39:52.986Z,6.35
2022-11-19T08:43:00.394Z,4.38
2022-11-19T08:46:01.948Z,6.75
2022-11-19T08:49:03.757Z,8.02
2022-11-19T08:52:05.416Z,6.65
2022-11-19T08:55:08.341Z,6.70
2022-11-19T08:58:11.326Z,7.78
2022-11-19T09:01:16.279Z,5.57
2022-11-19T09:04:18.513Z,7.35
2022-11-19T09:07:20.478Z,4.38
2022-11-19T09:10:22.121Z,6.72
2022-11-19T09:13:24.256Z,7.38
2022-11-19T09:16:25.901Z,6.78
2022-11-19T09:19:27.447Z,8.93
2022-11-19T09:22:29.924Z,5.88
2022-11-19T09:25:31.541Z,6.22
2022-11-19T09:28:33.263Z,11.13
2022-11-19T09:31:34.941Z,10.70
2022-11-19T09:34:40.483Z,7.05
2022-11-19T09:37:42.115Z,5.15
2022-11-19T09:40:46.225Z,7.70
2022-11-19T09:47:20.939Z,4.95
2022-11-19T09:50:25.911Z,5.20
2022-11-19T09:53:31.996Z,5.13
2022-11-19T09:56:39.916Z,4.50
2022-11-19T09:59:41.726Z,4.20
2022-11-19T10:02:43.299Z,4.28
2022-11-19T10:06:06.682Z,7.65
2022-11-19T10:09:29.781Z,4.82
2022-11-19T10:13:14.654Z,7.32
2022-11-19T10:16:30.359Z,7.13
2022-11-19T10:19:37.536Z,4.53
2022-11-19T10:22:57.809Z,5.25
2022-11-19T10:26:05.039Z,5.45
2022-11-19T10:29:16.310Z,5.53
2022-11-19T10:32:28.740Z,4.70
2022-11-19T10:35:42.035Z,4.75
2022-11-19T10:39:01.365Z,6.10
2022-11-19T10:42:30.173Z,7.68
2022-11-19T10:45:31.776Z,10.38
2022-11-19T10:48:42.404Z,6.43
2022-11-19T10:51:43.901Z,6.15
2022-11-19T10:54:47.475Z,4.15
2022-11-19T10:57:50.828Z,5.28
2022-11-19T11:00:55.743Z,5.85
2022-11-19T11:04:12.219Z,7.70
2022-11-19T11:07:13.865Z,5.90
2022-11-19T11:10:45.425Z,7.13
2022-11-19T11:14:05.635Z,5.50
2022-11-19T11:17:20.219Z,5.82
2022-11-19T11:20:27.226Z,7.93
2022-11-19T11:23:30.136Z,7.57
2022-11-19T11:26:34.377Z,6.75
2022-11-19T11:29:35.961Z,5.20
2022-11-19T11:32:38.570Z,5.88
2022-11-19T11:35:44.963Z,5.07
2022-11-19T11:38:50.084Z,5.45
2022-11-19T11:42:07.532Z,6.50
2022-11-19T11:45:29.137Z,3.95
2022-11-19T11:48:36.993Z,4.97
2022-11-19T11:51:42.185Z,5.80
2022-11-19T11:54:56.583Z,4.88
2022-11-19T12:01:15.482Z,6.13
2022-11-19T12:04:17.462Z,5.30
2022-11-19T12:08:14.548Z,2.63
2022-11-19T12:11:21.984Z,6.35
2022-11-19T12:14:36.662Z,4.47
2022-11-19T12:17:57.234Z,7.22
2022-11-19T12:21:17.470Z,8.60
2022-11-19T12:24:31.586Z,5.72
2022-11-19T12:28:05.297Z,6.10
2022-11-19T12:31:30.992Z,8.57
2022-11-19T12:34:38.424Z,5.63
2022-11-19T12:37:45.583Z,7.93
2022-11-19T12:41:22.834Z,6.38
2022-11-19T12:44:46.765Z,5.93
2022-11-19T12:48:00.288Z,4.68
2022-11-19T12:51:29.793Z,6.87
2022-11-19T12:54:49.460Z,5.05
2022-11-19T12:57:54.732Z,8.30
2022-11-19T13:01:09.634Z,5.03
2022-11-19T13:04:23.647Z,4.03
2022-11-19T13:07:35.710Z,7.40
2022-11-19T13:10:42.862Z,5.10
2022-11-19T13:13:50.484Z,2.85
2022-11-19T13:16:55.133Z,6.15
2022-11-19T13:20:01.069Z,3.80
2022-11-19T13:23:05.380Z,3.25
2022-11-19T13:26:17.488Z,6.93
2022-11-19T13:29:37.349Z,7.03
2022-11-19T13:32:46.309Z,7.07
2022-11-19T13:35:55.993Z,3.45
2022-11-19T13:39:04.595Z,3.88
2022-11-19T13:42:27.005Z,4.05
2022-11-19T13:45:29.645Z,5.30
2022-11-19T13:48:36.475Z,3.60
2022-11-19T13:51:48.389Z,3.03
2022-11-19T13:54:50.632Z,2.78
2022-11-19T13:57:52.482Z,5.40
2022-11-19T14:01:12.259Z,2.92
2022-11-19T14:04:41.878Z,3.90
2022-11-19T14:08:14.760Z,6.55
2022-11-19T14:11:43.512Z,6.03
2022-11-19T14:15:37.846Z,3.78
2022-11-19T14:19:05.466Z,3.40
2022-11-19T14:23:13.248Z,5.30
2022-11-19T14:26:40.895Z,3.92
2022-11-19T14:29:45.080Z,8.35
2022-11-19T14:35:51.462Z,7.03
2022-11-19T14:38:56.828Z,5.67
2022-11-19T14:42:16.694Z,8.23
2022-11-19T14:45:20.138Z,6.03
2022-11-19T14:48:22.953Z,5.00
2022-11-19T14:51:34.886Z,5.28
2022-11-19T14:54:44.012Z,7.68
2022-11-19T14:57:55.816Z,6.28
2022-11-19T15:01:09.933Z,6.75
2022-11-19T15:04:13.302Z,7.25
2022-11-19T15:07:25.257Z,6.67
2022-11-19T15:10:31.672Z,6.90
2022-11-19T15:13:48.253Z,7.07
2022-11-19T15:16:50.097Z,7.18
2022-11-19T15:20:29.156Z,11.05
2022-11-19T15:23:54.968Z,6.78
2022-11-19T15:27:05.469Z,7.65
2022-11-19T15:30:17.225Z,6.13
2022-11-19T15:34:04.892Z,8.30
2022-11-19T15:37:14.414Z,5.13
2022-11-19T15:40:21.344Z,6.32
2022-11-19T15:43:28.794Z,6.38
2022-11-19T15:46:39.108Z,6.97
2022-11-19T15:49:42.778Z,6.25
2022-11-19T15:53:00.563Z,10.82
2022-11-19T15:56:12.999Z,6.85
2022-11-19T15:59:16.867Z,7.22
2022-11-19T16:02:22.782Z,6.45
2022-11-19T16:05:32.779Z,8.00
2022-11-19T16:08:34.998Z,7.47
2022-11-19T16:11:56.880Z,7.07
2022-11-19T16:15:27.631Z,6.25
2022-11-19T16:18:29.969Z,6.35
2022-11-19T16:21:34.216Z,5.93
2022-11-19T16:24:54.078Z,5.53
2022-11-19T16:27:58.546Z,5.50
2022-11-19T16:31:02.603Z,9.40
2022-11-19T16:34:04.067Z,11.27
2022-11-19T16:37:05.656Z,6.30
2022-11-19T16:40:14.454Z,6.25
2022-11-19T16:43:16.775Z,4.97
2022-11-19T16:46:25.672Z,7.00
2022-11-19T16:49:32.120Z,8.95
2022-11-19T16:52:38.422Z,14.45
2022-11-19T16:55:42.969Z,14.65
2022-11-19T16:58:47.147Z,13.52
2022-11-19T17:01:57.520Z,20.85
2022-11-19T17:05:06.952Z,6.22
2022-11-19T17:08:22.768Z,7.28
2022-11-19T17:11:58.327Z,9.38
2022-11-19T17:15:02.262Z,33.78
2022-11-19T17:18:09.824Z,30.33
2022-11-19T17:21:25.759Z,29.95
2022-11-19T17:24:43.293Z,12.73
2022-11-19T17:27:51.759Z,5.93
2022-11-19T17:30:54.447Z,5.18
2022-11-19T17:34:19.501Z,9.35
2022-11-19T17:37:21.873Z,8.27
2022-11-19T17:40:23.385Z,6.55
2022-11-19T17:43:55.405Z,8.05
2022-11-19T17:46:57.312Z,18.08
2022-11-19T17:49:58.825Z,9.43
2022-11-19T17:53:00.340Z,8.25
2022-11-19T17:56:03.249Z,6.25
2022-11-19T17:59:04.862Z,10.48
2022-11-19T18:02:14.387Z,11.07
2022-11-19T18:05:19.891Z,11.23
2022-11-19T18:08:21.535Z,12.10
2022-11-19T18:11:25.414Z,9.98
2022-11-19T18:14:27.020Z,10.35
2022-11-19T18:17:28.638Z,13.65
2022-11-19T18:20:30.191Z,12.85
2022-11-19T18:23:31.706Z,17.73
2022-11-19T18:26:33.287Z,15.98
2022-11-19T18:29:34.775Z,13.43
2022-11-19T18:32:36.605Z,9.20
2022-11-19T18:35:38.314Z,8.93
2022-11-19T18:38:40.607Z,8.90
2022-11-19T18:41:42.664Z,7.55
2022-11-19T18:44:44.200Z,8.52
2022-11-19T18:47:45.767Z,6.38
2022-11-19T18:50:47.326Z,5.78
2022-11-19T18:53:48.922Z,6.18
2022-11-19T18:56:50.509Z,6.82
2022-11-19T18:59:52.066Z,6.53
2022-11-19T19:02:53.719Z,6.07
2022-11-19T19:05:55.270Z,6.82
2022-11-19T19:08:56.902Z,6.47
2022-11-19T19:12:16.796Z,6.57
2022-11-19T19:15:18.521Z,7.88
2022-11-19T19:18:20.069Z,9.05
2022-11-19T19:21:22.709Z,5.57
2022-11-19T19:24:25.137Z,8.30
2022-11-19T19:27:26.893Z,6.45
2022-11-19T19:30:28.638Z,8.95
2022-11-19T19:33:30.594Z,8.80
2022-11-19T19:36:32.104Z,11.85
2022-11-19T19:43:21.707Z,6.45
2022-11-19T19:46:24.044Z,7.93
2022-11-19T19:49:25.606Z,7.28
2022-11-19T19:52:27.062Z,5.43
2022-11-19T19:55:28.577Z,6.40
2022-11-19T19:58:30.622Z,12.82
2022-11-19T20:01:34.948Z,14.02
2022-11-19T20:04:36.561Z,6.75
2022-11-19T20:07:38.541Z,6.60
2022-11-19T20:10:40.066Z,9.40
2022-11-19T20:13:42.552Z,6.18
2022-11-19T20:16:44.086Z,4.90
2022-11-19T20:19:45.623Z,6.00
2022-11-19T20:22:47.210Z,5.22
2022-11-19T20:25:48.742Z,9.77
2022-11-19T20:28:58.216Z,7.82
2022-11-19T20:31:59.822Z,9.65
2022-11-19T20:35:01.322Z,7.95
2022-11-19T20:38:03.743Z,7.45
2022-11-19T20:41:07.690Z,8.25
2022-11-19T20:44:20.947Z,6.28
2022-11-19T20:47:22.785Z,8.17
2022-11-19T20:50:24.328Z,5.63
2022-11-19T20:53:25.910Z,6.07
2022-11-19T20:56:27.513Z,7.20
2022-11-19T20:59:29.301Z,5.75
2022-11-19T21:02:30.909Z,5.22
2022-11-19T21:05:32.497Z,5.25
2022-11-19T21:08:35.776Z,4.63
2022-11-19T21:11:37.808Z,4.93
2022-11-19T21:14:39.348Z,5.15
2022-11-19T21:17:40.833Z,7.53
2022-11-19T21:20:42.412Z,6.78
2022-11-19T21:23:44.495Z,9.32
2022-11-19T21:26:45.998Z,7.30
2022-11-19T21:29:47.538Z,8.60
2022-11-19T21:32:49.072Z,6.38
2022-11-19T21:35:50.620Z,4.90
2022-11-19T21:38:52.110Z,5.28
2022-11-19T21:41:53.704Z,7.13
2022-11-19T21:44:55.302Z,7.63
2022-11-19T21:47:57.223Z,5.15
2022-11-19T21:51:08.347Z,6.30
2022-11-19T21:54:26.157Z,10.18
2022-11-19T21:57:31.805Z,6.57
2022-11-19T22:00:34.396Z,4.88
2022-11-19T22:03:35.912Z,6.63
2022-11-19T22:06:37.435Z,6.13
2022-11-19T22:09:38.931Z,6.75
2022-11-19T22:12:40.473Z,5.68
2022-11-19T22:15:42.689Z,4.57
2022-11-19T22:18:47.326Z,5.53
2022-11-19T22:21:48.919Z,5.97
2022-11-19T22:24:50.461Z,7.10
2022-11-19T22:27:52.023Z,6.35
2022-11-19T22:30:54.723Z,7.95
2022-11-19T22:33:56.338Z,5.88
2022-11-19T22:36:57.892Z,7.45
2022-11-19T22:39:59.560Z,8.25
2022-11-19T22:43:01.094Z,7.82
2022-11-19T22:46:02.702Z,7.53
2022-11-19T22:49:05.464Z,6.65
2022-11-19T22:52:06.950Z,6.75
2022-11-19T22:55:09.010Z,9.27
2022-11-19T22:58:10.660Z,9.05
2022-11-19T23:01:26.486Z,5.55
2022-11-19T23:04:28.985Z,6.88
2022-11-19T23:07:30.622Z,7.20
2022-11-19T23:10:35.555Z,14.50
2022-11-19T23:13:39.328Z,13.95
2022-11-19T23:16:41.596Z,8.93
2022-11-19T23:19:43.342Z,8.07
2022-11-19T23:22:46.067Z,8.52
2022-11-19T23:25:47.587Z,7.10
2022-11-19T23:28:49.444Z,6.47
2022-11-19T23:31:50.954Z,6.43
2022-11-19T23:34:52.418Z,5.78
2022-11-19T23:37:53.903Z,5.65
2022-11-19T23:41:02.403Z,5.57
2022-11-19T23:44:04.209Z,5.75
2022-11-19T23:47:06.694Z,5.18
2022-11-19T23:50:08.749Z,7.13
2022-11-19T23:53:10.365Z,9.18
2022-11-19T23:56:13.194Z,9.93
2022-11-19T23:59:14.725Z,7.05
